Piney Point, Maryland
Current Conditions -  °F | °C
As of 3:53 PM on Saturday 25 Oct 2014 (Local Time) from KNUI Reporting Station
Clear Clear  
Wind Chill: 68°   Ceiling: Unl
Heat Index: 68°   Visibility: 10mi
Dew Point: 42°   Wind: 6mph
Humidity: 39%   Direction: 230°SW
Pressure: 29.82"   Gusts: NA
Location:  38.14°N, 76.51°W
Report Text: KNUI 251953Z AUTO 23005KT 10SM CLR 20/06 A2982 RMK AO2 SLP096 T02000056 $
Loading
Personal Weather Stations






























Interactive Weather Map
Tropical Storm Tracking
New forecast layout! Learn more

10-Day Weather Forecast

Advertisements
Track Severe Weather on mobile